createdAt,value
2023-05-21T00:02:24.538Z,44.00
2023-05-21T00:04:52.659Z,42.90
2023-05-21T00:07:21.090Z,41.60
2023-05-21T00:09:49.063Z,40.20
2023-05-21T00:12:17.016Z,40.10
2023-05-21T00:14:44.992Z,40.30
2023-05-21T00:17:12.962Z,40.20
2023-05-21T00:19:40.932Z,41.10
2023-05-21T00:22:09.376Z,40.30
2023-05-21T00:24:37.371Z,40.00
2023-05-21T00:27:05.712Z,39.70
2023-05-21T00:29:33.618Z,39.70
2023-05-21T00:32:01.670Z,41.60
2023-05-21T00:34:29.812Z,43.70
2023-05-21T00:36:57.730Z,42.60
2023-05-21T00:39:26.190Z,39.20
2023-05-21T00:41:54.156Z,40.50
2023-05-21T00:44:22.292Z,41.90
2023-05-21T00:46:53.774Z,42.40
2023-05-21T00:49:24.518Z,44.80
2023-05-21T00:51:53.120Z,43.20
2023-05-21T00:54:22.185Z,42.80
2023-05-21T00:56:51.345Z,41.70
2023-05-21T00:59:19.505Z,43.40
2023-05-21T01:01:54.018Z,42.10
2023-05-21T01:04:25.453Z,39.60
2023-05-21T01:06:53.671Z,42.70
2023-05-21T01:09:22.413Z,40.50
2023-05-21T01:11:51.753Z,42.00
2023-05-21T01:14:20.827Z,42.50
2023-05-21T01:16:50.350Z,44.20
2023-05-21T01:19:23.878Z,44.90
2023-05-21T01:24:21.261Z,50.90
2023-05-21T01:26:49.650Z,47.90
2023-05-21T01:29:17.673Z,49.90
2023-05-21T01:31:59.580Z,47.30
2023-05-21T01:34:45.866Z,44.20
2023-05-21T01:37:27.046Z,38.30
2023-05-21T01:40:05.588Z,36.70
2023-05-21T01:42:36.201Z,37.30
2023-05-21T01:45:07.064Z,35.70
2023-05-21T01:47:37.488Z,36.70
2023-05-21T01:50:06.856Z,37.00
2023-05-21T01:52:34.903Z,38.50
2023-05-21T01:55:03.682Z,37.80
2023-05-21T01:57:32.005Z,37.10
2023-05-21T02:00:01.232Z,38.10
2023-05-21T02:02:29.326Z,42.30
2023-05-21T02:04:57.387Z,44.40
2023-05-21T02:07:25.324Z,36.90
2023-05-21T02:09:53.222Z,35.20
2023-05-21T02:12:21.389Z,35.30
2023-05-21T02:14:50.462Z,34.90
2023-05-21T02:17:18.627Z,35.20
2023-05-21T02:19:46.623Z,34.10
2023-05-21T02:22:14.613Z,34.50
2023-05-21T02:24:42.991Z,34.20
2023-05-21T02:27:13.473Z,33.80
2023-05-21T02:29:41.587Z,37.10
2023-05-21T02:32:09.566Z,41.80
2023-05-21T02:34:42.410Z,39.10
2023-05-21T02:37:10.523Z,36.20
2023-05-21T02:39:38.496Z,40.40
2023-05-21T02:42:07.499Z,41.30
2023-05-21T02:44:35.927Z,40.80
2023-05-21T02:47:04.144Z,43.30
2023-05-21T02:49:32.567Z,37.50
2023-05-21T02:52:00.581Z,45.70
2023-05-21T02:54:28.574Z,46.90
2023-05-21T02:56:56.722Z,42.00
2023-05-21T02:59:24.747Z,39.40
2023-05-21T03:01:52.853Z,38.60
2023-05-21T03:04:24.055Z,36.00
2023-05-21T03:06:54.968Z,37.10
2023-05-21T03:09:23.038Z,35.30
2023-05-21T03:11:51.065Z,37.00
2023-05-21T03:14:19.313Z,36.70
2023-05-21T03:16:47.501Z,39.30
2023-05-21T03:19:15.635Z,52.10
2023-05-21T03:21:44.695Z,41.50
2023-05-21T03:24:13.797Z,37.10
2023-05-21T03:26:41.832Z,34.60
2023-05-21T03:29:10.305Z,37.00
2023-05-21T03:31:39.883Z,35.20
2023-05-21T03:34:10.564Z,34.80
2023-05-21T03:36:38.619Z,33.50
2023-05-21T03:39:07.091Z,33.30
2023-05-21T03:41:35.378Z,32.50
2023-05-21T03:44:08.860Z,30.90
2023-05-21T03:46:47.947Z,31.10
2023-05-21T03:49:26.873Z,29.70
2023-05-21T03:51:56.538Z,30.40
2023-05-21T03:54:24.599Z,28.50
2023-05-21T03:56:55.509Z,28.00
2023-05-21T03:59:24.274Z,27.90
2023-05-21T04:01:52.822Z,29.80
2023-05-21T04:04:20.837Z,36.70
2023-05-21T04:06:51.175Z,36.70
2023-05-21T04:09:19.324Z,29.10
2023-05-21T04:11:48.024Z,29.50
2023-05-21T04:14:16.059Z,27.60
2023-05-21T04:16:44.095Z,28.90
2023-05-21T04:19:12.227Z,30.60
2023-05-21T04:21:42.059Z,35.40
2023-05-21T04:24:10.200Z,29.90
2023-05-21T04:26:48.186Z,29.40
2023-05-21T04:29:21.269Z,29.40
2023-05-21T04:34:18.923Z,26.90
2023-05-21T04:36:47.149Z,30.00
2023-05-21T04:39:16.363Z,28.40
2023-05-21T04:41:44.936Z,28.60
2023-05-21T04:44:15.045Z,28.40
2023-05-21T04:46:46.187Z,28.40
2023-05-21T04:49:15.401Z,27.40
2023-05-21T04:51:43.354Z,29.00
2023-05-21T04:54:11.506Z,27.70
2023-05-21T04:56:39.577Z,27.70
2023-05-21T04:59:07.650Z,25.00
2023-05-21T05:01:38.634Z,25.70
2023-05-21T05:04:06.807Z,24.20
2023-05-21T05:06:34.841Z,23.70
2023-05-21T05:09:02.999Z,23.00
2023-05-21T05:11:31.810Z,23.30
2023-05-21T05:13:59.795Z,22.80
2023-05-21T05:16:29.763Z,22.90
2023-05-21T05:18:58.035Z,21.30
2023-05-21T05:21:26.060Z,21.10
2023-05-21T05:23:54.149Z,20.80
2023-05-21T05:26:26.227Z,21.20
2023-05-21T05:28:54.263Z,21.50
2023-05-21T05:31:22.233Z,20.90
2023-05-21T05:33:50.426Z,20.20
2023-05-21T05:36:18.484Z,21.00
2023-05-21T05:38:47.268Z,20.20
2023-05-21T05:41:15.305Z,19.70
2023-05-21T05:43:43.379Z,17.90
2023-05-21T05:46:11.395Z,19.10
2023-05-21T05:48:40.273Z,16.60
2023-05-21T05:51:08.433Z,16.40
2023-05-21T05:53:36.590Z,16.30
2023-05-21T05:56:05.055Z,16.60
2023-05-21T05:58:33.237Z,16.00
2023-05-21T06:01:13.403Z,16.80
2023-05-21T06:03:41.684Z,16.60
2023-05-21T06:06:15.596Z,15.50
2023-05-21T06:08:43.877Z,15.30
2023-05-21T06:11:17.139Z,16.30
2023-05-21T06:13:45.791Z,14.60
2023-05-21T06:16:14.238Z,15.00
2023-05-21T06:18:42.793Z,14.60
2023-05-21T06:21:11.143Z,14.60
2023-05-21T06:23:39.669Z,14.70
2023-05-21T06:26:08.456Z,14.40
2023-05-21T06:28:36.987Z,13.90
2023-05-21T06:31:05.495Z,14.00
2023-05-21T06:33:34.175Z,13.40
2023-05-21T06:36:02.258Z,13.90
2023-05-21T06:38:30.698Z,13.30
2023-05-21T06:40:58.707Z,13.70
2023-05-21T06:43:46.925Z,13.80
2023-05-21T06:46:35.939Z,13.10
2023-05-21T06:49:07.943Z,13.00
2023-05-21T06:51:36.032Z,13.30
2023-05-21T06:54:04.681Z,12.40
2023-05-21T06:56:32.806Z,13.00
2023-05-21T06:59:00.802Z,12.50
2023-05-21T07:01:29.039Z,12.80
2023-05-21T07:03:58.196Z,12.30
2023-05-21T07:06:26.742Z,12.60
2023-05-21T07:08:54.878Z,12.40
2023-05-21T07:11:25.292Z,12.50
2023-05-21T07:13:53.283Z,12.70
2023-05-21T07:16:21.451Z,12.30
2023-05-21T07:18:49.976Z,12.70
2023-05-21T07:21:18.132Z,13.50
2023-05-21T07:23:49.835Z,12.60
2023-05-21T07:26:18.003Z,12.90
2023-05-21T07:28:46.324Z,13.20
2023-05-21T07:31:14.377Z,13.40
2023-05-21T07:33:46.489Z,13.60
2023-05-21T07:36:14.822Z,12.90
2023-05-21T07:38:44.159Z,14.20
2023-05-21T07:41:12.191Z,14.10
2023-05-21T07:43:40.433Z,14.20
2023-05-21T07:46:08.422Z,13.40
2023-05-21T07:48:37.869Z,13.20
2023-05-21T07:51:06.185Z,14.20
2023-05-21T07:53:34.247Z,12.70
2023-05-21T07:56:04.614Z,14.00
2023-05-21T07:58:35.300Z,13.50
2023-05-21T08:01:03.796Z,12.80
2023-05-21T08:03:32.576Z,13.00
2023-05-21T08:06:00.673Z,13.50
2023-05-21T08:08:28.799Z,13.00
2023-05-21T08:10:57.694Z,13.10
2023-05-21T08:13:28.747Z,13.20
2023-05-21T08:15:56.777Z,14.00
2023-05-21T08:18:25.489Z,14.30
2023-05-21T08:20:55.814Z,12.70
2023-05-21T08:23:24.691Z,13.00
2023-05-21T08:25:55.722Z,14.20
2023-05-21T08:28:23.743Z,13.80
2023-05-21T08:30:52.696Z,12.90
2023-05-21T08:33:22.937Z,12.90
2023-05-21T08:35:50.869Z,12.90
2023-05-21T08:38:28.670Z,13.20
2023-05-21T08:41:05.947Z,13.80
2023-05-21T08:43:34.519Z,12.80
2023-05-21T08:46:04.765Z,13.20
2023-05-21T08:48:38.107Z,13.50
2023-05-21T08:51:06.467Z,13.40
2023-05-21T08:53:38.505Z,13.00
2023-05-21T08:56:09.480Z,13.20
2023-05-21T08:58:47.209Z,13.70
2023-05-21T09:01:19.578Z,12.90
2023-05-21T09:03:52.628Z,13.30
2023-05-21T09:06:21.668Z,12.70
2023-05-21T09:08:58.771Z,13.70
2023-05-21T09:11:42.544Z,12.30
2023-05-21T09:14:11.666Z,12.30
2023-05-21T09:17:09.011Z,13.10
2023-05-21T09:19:37.172Z,12.80
2023-05-21T09:22:05.192Z,13.10
2023-05-21T09:24:36.233Z,12.20
2023-05-21T09:27:07.232Z,12.20
2023-05-21T09:29:35.603Z,11.40
2023-05-21T09:32:08.117Z,13.30
2023-05-21T09:34:37.272Z,12.00
2023-05-21T09:37:16.487Z,12.60
2023-05-21T09:39:48.846Z,12.80
2023-05-21T09:42:17.274Z,12.00
2023-05-21T09:44:45.548Z,12.70
2023-05-21T09:47:19.896Z,12.70
2023-05-21T09:49:49.293Z,11.50
2023-05-21T09:52:25.360Z,12.10
2023-05-21T09:54:53.522Z,11.80
2023-05-21T09:57:26.428Z,11.20
2023-05-21T09:59:54.742Z,11.50
2023-05-21T10:02:24.679Z,11.70
2023-05-21T10:04:54.650Z,11.30
2023-05-21T10:07:28.928Z,11.40
2023-05-21T10:09:58.018Z,11.50
2023-05-21T10:12:28.836Z,11.20
2023-05-21T10:15:12.051Z,11.40
2023-05-21T10:17:41.084Z,10.80
2023-05-21T10:20:11.761Z,11.00
2023-05-21T10:22:40.984Z,11.20
2023-05-21T10:25:09.500Z,10.80
2023-05-21T10:27:37.685Z,10.60
2023-05-21T10:30:07.210Z,10.60
2023-05-21T10:32:35.336Z,10.50
2023-05-21T10:35:03.716Z,9.90
2023-05-21T10:37:31.730Z,10.10
2023-05-21T10:39:59.897Z,10.40
2023-05-21T10:42:48.157Z,10.10
2023-05-21T10:45:50.722Z,10.10
2023-05-21T10:48:43.713Z,9.90
2023-05-21T10:52:00.486Z,10.20
2023-05-21T10:54:56.290Z,9.10
2023-05-21T10:57:58.394Z,9.30
2023-05-21T11:00:27.488Z,9.60
2023-05-21T11:02:55.634Z,9.10
2023-05-21T11:05:40.579Z,9.20
2023-05-21T11:08:31.688Z,9.20
2023-05-21T11:10:59.711Z,8.30
2023-05-21T11:13:31.434Z,8.20
2023-05-21T11:15:59.500Z,8.50
2023-05-21T11:18:39.650Z,8.50
2023-05-21T11:21:13.652Z,8.00
2023-05-21T11:23:51.206Z,9.20
2023-05-21T11:26:27.864Z,8.20
2023-05-21T11:29:04.748Z,8.40
2023-05-21T11:31:38.422Z,7.80
2023-05-21T11:34:32.203Z,8.40
2023-05-21T11:37:18.821Z,8.80
2023-05-21T11:39:48.213Z,7.10
2023-05-21T11:42:35.403Z,7.80
2023-05-21T11:45:04.239Z,8.10
2023-05-21T11:47:32.801Z,6.50
2023-05-21T11:50:02.789Z,7.30
2023-05-21T11:52:31.882Z,6.40
2023-05-21T11:55:00.067Z,6.90
2023-05-21T11:57:32.383Z,5.80
2023-05-21T12:00:02.420Z,6.40
2023-05-21T12:02:46.197Z,6.10
2023-05-21T12:05:14.501Z,5.70
2023-05-21T12:07:42.745Z,4.70
2023-05-21T12:10:11.388Z,5.40
2023-05-21T12:12:53.277Z,5.60
2023-05-21T12:15:24.581Z,5.20
2023-05-21T12:17:53.377Z,5.20
2023-05-21T12:20:22.417Z,5.90
2023-05-21T12:22:50.555Z,5.80
2023-05-21T12:25:20.604Z,5.10
2023-05-21T12:27:50.991Z,5.70
2023-05-21T12:30:19.521Z,4.50
2023-05-21T12:32:48.994Z,4.10
2023-05-21T12:35:24.429Z,4.90
2023-05-21T12:37:53.051Z,4.50
2023-05-21T12:40:22.276Z,4.10
2023-05-21T12:42:51.655Z,4.70
2023-05-21T12:45:21.161Z,5.10
2023-05-21T12:47:50.755Z,4.70
2023-05-21T12:50:21.234Z,4.40
2023-05-21T12:52:49.320Z,5.00
2023-05-21T12:55:17.654Z,5.00
2023-05-21T12:57:46.227Z,5.60
2023-05-21T13:00:14.472Z,5.70
2023-05-21T13:02:44.444Z,4.50
2023-05-21T13:05:17.795Z,3.80
2023-05-21T13:07:48.965Z,4.30
2023-05-21T13:10:17.398Z,4.00
2023-05-21T13:12:46.157Z,4.10
2023-05-21T13:15:14.496Z,3.20
2023-05-21T13:17:42.617Z,3.30
2023-05-21T13:20:20.466Z,3.30
2023-05-21T13:22:51.834Z,3.60
2023-05-21T13:25:22.431Z,3.40
2023-05-21T13:27:51.963Z,3.40
2023-05-21T13:30:20.971Z,3.10
2023-05-21T13:32:49.355Z,3.30
2023-05-21T13:35:17.815Z,3.90
2023-05-21T13:37:46.061Z,3.40
2023-05-21T13:40:15.750Z,3.60
2023-05-21T13:42:45.644Z,3.40
2023-05-21T13:45:16.038Z,3.30
2023-05-21T13:47:45.403Z,3.20
2023-05-21T13:50:13.696Z,3.50
2023-05-21T13:52:41.765Z,3.20
2023-05-21T13:55:10.802Z,4.10
2023-05-21T13:57:40.587Z,4.20
2023-05-21T14:00:10.567Z,3.90
2023-05-21T14:02:38.712Z,4.50
2023-05-21T14:05:07.067Z,3.40
2023-05-21T14:07:35.054Z,4.20
2023-05-21T14:10:03.040Z,3.50
2023-05-21T14:12:31.369Z,3.50
2023-05-21T14:14:59.438Z,4.00
2023-05-21T14:17:27.445Z,4.50
2023-05-21T14:19:55.935Z,3.90
2023-05-21T14:22:24.090Z,3.10
2023-05-21T14:24:52.812Z,3.40
2023-05-21T14:27:21.021Z,3.20
2023-05-21T14:29:49.043Z,2.50
2023-05-21T14:32:18.442Z,3.50
2023-05-21T14:34:46.470Z,4.30
2023-05-21T14:37:14.404Z,4.10
2023-05-21T14:39:42.291Z,3.40
2023-05-21T14:42:10.498Z,3.30
2023-05-21T14:44:38.458Z,3.80
2023-05-21T14:47:06.446Z,3.80
2023-05-21T14:49:34.413Z,2.80
2023-05-21T14:52:02.370Z,3.20
2023-05-21T14:54:30.397Z,2.70
2023-05-21T14:56:58.380Z,3.30
2023-05-21T14:59:26.331Z,2.80
2023-05-21T15:01:54.422Z,2.90
2023-05-21T15:04:22.510Z,2.90
2023-05-21T15:06:51.268Z,3.10
2023-05-21T15:09:19.177Z,2.80
2023-05-21T15:11:47.155Z,2.60
2023-05-21T15:14:15.110Z,2.50
2023-05-21T15:16:43.162Z,3.10
2023-05-21T15:19:11.975Z,2.70
2023-05-21T15:21:40.006Z,2.50
2023-05-21T15:24:08.112Z,3.00
2023-05-21T15:26:36.138Z,2.60
2023-05-21T15:29:04.187Z,2.70
2023-05-21T15:31:32.783Z,2.70
2023-05-21T15:34:00.935Z,2.80
2023-05-21T15:36:28.876Z,3.00
2023-05-21T15:38:56.942Z,2.90
2023-05-21T15:41:24.873Z,2.60
2023-05-21T15:43:52.855Z,3.20
2023-05-21T15:46:21.202Z,2.80
2023-05-21T15:48:49.246Z,2.90
2023-05-21T15:51:20.893Z,2.60
2023-05-21T15:53:48.897Z,2.60
2023-05-21T15:56:16.946Z,3.20
2023-05-21T15:58:44.961Z,3.30
2023-05-21T16:01:13.172Z,3.30
2023-05-21T16:03:41.210Z,3.00
2023-05-21T16:06:10.405Z,2.60
2023-05-21T16:08:38.295Z,2.80
2023-05-21T16:11:06.418Z,2.90
2023-05-21T16:13:34.409Z,3.00
2023-05-21T16:16:02.560Z,2.80
2023-05-21T16:18:30.779Z,3.50
2023-05-21T16:20:58.729Z,3.30
2023-05-21T16:23:26.707Z,3.90
2023-05-21T16:25:54.658Z,3.90
2023-05-21T16:28:24.441Z,4.20
2023-05-21T16:30:52.552Z,3.70
2023-05-21T16:33:20.534Z,3.60
2023-05-21T16:35:48.494Z,3.40
2023-05-21T16:38:16.587Z,4.00
2023-05-21T16:40:45.356Z,3.70
2023-05-21T16:43:13.417Z,3.40
2023-05-21T16:45:43.416Z,3.40
2023-05-21T16:48:12.879Z,3.80
2023-05-21T16:50:41.257Z,4.20
2023-05-21T16:53:09.977Z,3.70
2023-05-21T16:55:38.533Z,3.40
2023-05-21T16:58:06.960Z,3.70
2023-05-21T17:00:34.971Z,3.20
2023-05-21T17:03:03.237Z,3.50
2023-05-21T17:05:31.376Z,3.40
2023-05-21T17:07:59.451Z,3.50
2023-05-21T17:10:27.770Z,3.20
2023-05-21T17:12:56.361Z,3.40
2023-05-21T17:15:26.818Z,3.50
2023-05-21T17:17:54.769Z,3.40
2023-05-21T17:20:22.868Z,3.80
2023-05-21T17:22:50.803Z,3.30
2023-05-21T17:25:19.241Z,3.10
2023-05-21T17:27:47.395Z,3.80
2023-05-21T17:30:15.649Z,3.60
2023-05-21T17:32:43.710Z,3.00
2023-05-21T17:35:11.622Z,3.70
2023-05-21T17:37:39.631Z,3.90
2023-05-21T17:40:08.338Z,3.90
2023-05-21T17:42:36.325Z,3.60
2023-05-21T17:45:04.828Z,3.20
2023-05-21T17:47:34.651Z,3.70
2023-05-21T17:50:02.786Z,4.10
2023-05-21T17:52:30.946Z,4.10
2023-05-21T17:54:58.858Z,3.20
2023-05-21T17:57:26.820Z,3.10
2023-05-21T17:59:55.592Z,3.10
2023-05-21T18:02:23.652Z,3.40
2023-05-21T18:04:52.729Z,3.70
2023-05-21T18:07:22.280Z,2.60
2023-05-21T18:09:50.389Z,3.30
2023-05-21T18:12:18.671Z,3.20
2023-05-21T18:14:47.541Z,2.80
2023-05-21T18:17:15.796Z,3.00
2023-05-21T18:19:43.835Z,2.70
2023-05-21T18:22:11.945Z,3.40
2023-05-21T18:24:39.888Z,3.50
2023-05-21T18:27:07.895Z,3.50
2023-05-21T18:29:39.726Z,3.10
2023-05-21T18:32:10.942Z,4.20
2023-05-21T18:34:39.066Z,6.20
2023-05-21T18:37:07.045Z,6.10
2023-05-21T18:39:35.050Z,4.90
2023-05-21T18:42:12.825Z,4.60
2023-05-21T18:44:45.774Z,4.00
2023-05-21T18:47:13.895Z,3.30
2023-05-21T18:49:41.982Z,3.20
2023-05-21T18:52:09.929Z,3.10
2023-05-21T18:54:37.883Z,3.10
2023-05-21T18:57:06.789Z,3.60
2023-05-21T18:59:35.092Z,3.10
2023-05-21T19:02:04.398Z,3.20
2023-05-21T19:04:33.294Z,2.90
2023-05-21T19:07:02.783Z,3.20
2023-05-21T19:09:30.732Z,3.20
2023-05-21T19:12:00.547Z,3.10
2023-05-21T19:14:28.587Z,3.20
2023-05-21T19:16:57.025Z,3.30
2023-05-21T19:19:25.451Z,3.00
2023-05-21T19:21:53.610Z,3.30
2023-05-21T19:24:21.748Z,2.90
2023-05-21T19:26:50.062Z,3.00
2023-05-21T19:29:18.116Z,3.00
2023-05-21T19:31:46.136Z,2.80
2023-05-21T19:34:14.093Z,3.40
2023-05-21T19:36:51.987Z,3.00
2023-05-21T19:39:21.521Z,2.90
2023-05-21T19:41:49.572Z,3.20
2023-05-21T19:44:18.736Z,2.80
2023-05-21T19:46:46.736Z,4.00
2023-05-21T19:49:15.938Z,3.30
2023-05-21T19:51:44.038Z,2.80
2023-05-21T19:54:12.115Z,2.60
2023-05-21T19:56:40.152Z,3.00
2023-05-21T19:59:08.238Z,3.10
2023-05-21T20:01:39.537Z,3.70
2023-05-21T20:04:07.771Z,3.30
2023-05-21T20:06:36.137Z,3.20
2023-05-21T20:09:05.385Z,3.50
2023-05-21T20:11:34.450Z,3.40
2023-05-21T20:14:02.437Z,3.10
2023-05-21T20:16:30.471Z,3.20
2023-05-21T20:18:58.547Z,3.00
2023-05-21T20:21:26.653Z,3.90
2023-05-21T20:23:54.711Z,3.50
2023-05-21T20:26:23.252Z,3.80
2023-05-21T20:28:51.420Z,4.00
2023-05-21T20:31:19.578Z,5.20
2023-05-21T20:33:50.567Z,4.20
2023-05-21T20:36:21.177Z,5.70
2023-05-21T20:38:49.341Z,5.40
2023-05-21T20:41:17.491Z,4.40
2023-05-21T20:43:46.058Z,4.00
2023-05-21T20:46:14.142Z,4.70
2023-05-21T20:48:43.617Z,4.10
2023-05-21T20:51:12.179Z,4.30
2023-05-21T20:53:43.761Z,4.00
2023-05-21T20:56:14.880Z,4.00
2023-05-21T20:58:42.862Z,4.00
2023-05-21T21:01:11.126Z,4.10
2023-05-21T21:03:41.385Z,3.90
2023-05-21T21:06:09.831Z,4.50
2023-05-21T21:08:40.379Z,4.10
2023-05-21T21:11:09.063Z,4.20
2023-05-21T21:13:37.126Z,4.20
2023-05-21T21:16:05.930Z,3.70
2023-05-21T21:18:34.184Z,4.10
2023-05-21T21:21:02.219Z,4.10
2023-05-21T21:23:30.316Z,3.90
2023-05-21T21:25:58.549Z,3.80
2023-05-21T21:28:26.576Z,4.40
2023-05-21T21:30:54.682Z,4.00
2023-05-21T21:33:24.396Z,4.30
2023-05-21T21:35:52.499Z,4.10
2023-05-21T21:38:20.463Z,4.20
2023-05-21T21:40:48.654Z,4.30
2023-05-21T21:43:16.690Z,4.40
2023-05-21T21:45:44.819Z,4.30
2023-05-21T21:48:13.031Z,4.60
2023-05-21T21:50:41.254Z,4.50
2023-05-21T21:53:14.036Z,4.50
2023-05-21T21:55:42.216Z,4.60
2023-05-21T21:58:10.464Z,5.20
2023-05-21T22:00:38.796Z,4.70
2023-05-21T22:03:07.016Z,4.90
2023-05-21T22:05:35.696Z,4.80
2023-05-21T22:08:03.861Z,5.40
2023-05-21T22:10:33.650Z,6.20
2023-05-21T22:13:02.978Z,6.40
2023-05-21T22:15:32.311Z,6.70
2023-05-21T22:18:03.639Z,6.70
2023-05-21T22:20:33.156Z,7.90
2023-05-21T22:23:01.319Z,7.80
2023-05-21T22:25:29.330Z,7.90
2023-05-21T22:27:57.326Z,6.60
2023-05-21T22:30:25.265Z,7.10
2023-05-21T22:32:53.359Z,5.90
2023-05-21T22:35:21.415Z,5.50
2023-05-21T22:37:49.393Z,7.00
2023-05-21T22:40:17.594Z,6.90
2023-05-21T22:42:47.122Z,5.90
2023-05-21T22:45:15.386Z,6.50
2023-05-21T22:47:43.368Z,7.30
2023-05-21T22:50:11.368Z,6.20
2023-05-21T22:52:39.482Z,6.50
2023-05-21T22:55:11.279Z,7.20
2023-05-21T22:57:39.567Z,7.50
2023-05-21T23:00:09.128Z,8.90
2023-05-21T23:02:37.436Z,8.60
2023-05-21T23:05:05.765Z,9.10
2023-05-21T23:07:33.744Z,9.60
2023-05-21T23:10:01.819Z,9.30
2023-05-21T23:12:29.985Z,8.90
2023-05-21T23:14:57.937Z,8.80
2023-05-21T23:17:26.378Z,8.50
2023-05-21T23:19:54.364Z,8.10
2023-05-21T23:22:22.358Z,8.30
2023-05-21T23:24:51.110Z,7.90
2023-05-21T23:27:19.224Z,8.90
2023-05-21T23:29:47.485Z,8.20
2023-05-21T23:32:15.546Z,8.00
2023-05-21T23:34:43.586Z,9.00
2023-05-21T23:37:11.642Z,8.50
2023-05-21T23:39:39.916Z,8.50
2023-05-21T23:42:08.014Z,9.20
2023-05-21T23:44:35.992Z,9.40
2023-05-21T23:47:04.280Z,9.70
2023-05-21T23:49:32.217Z,9.80
2023-05-21T23:52:00.303Z,10.40
2023-05-21T23:54:28.291Z,10.60
2023-05-21T23:56:56.226Z,10.60
2023-05-21T23:59:24.230Z,11.00
